sensor_id;sensor_type;location;lat;lon;timestamp;P1;durP1;ratioP1;P2;durP2;ratioP2
15878;SDS011;61999;51.514;14.614;2023-06-19T00:02:24;11.47;;;10.60;;
15878;SDS011;61999;51.514;14.614;2023-06-19T00:04:53;11.70;;;10.80;;
15878;SDS011;61999;51.514;14.614;2023-06-19T00:07:21;12.73;;;11.73;;
15878;SDS011;61999;51.514;14.614;2023-06-19T00:09:49;14.83;;;13.63;;
15878;SDS011;61999;51.514;14.614;2023-06-19T00:12:17;14.20;;;13.00;;
15878;SDS011;61999;51.514;14.614;2023-06-19T00:14:45;14.07;;;12.77;;
15878;SDS011;61999;51.514;14.614;2023-06-19T00:17:14;12.60;;;11.60;;
15878;SDS011;61999;51.514;14.614;2023-06-19T00:19:46;12.30;;;11.30;;
15878;SDS011;61999;51.514;14.614;2023-06-19T00:22:17;12.07;;;11.17;;
15878;SDS011;61999;51.514;14.614;2023-06-19T00:24:46;11.57;;;10.77;;
15878;SDS011;61999;51.514;14.614;2023-06-19T00:27:20;12.20;;;11.20;;
15878;SDS011;61999;51.514;14.614;2023-06-19T00:29:50;11.77;;;10.87;;
15878;SDS011;61999;51.514;14.614;2023-06-19T00:32:18;11.70;;;10.80;;
15878;SDS011;61999;51.514;14.614;2023-06-19T00:34:47;11.57;;;10.67;;
15878;SDS011;61999;51.514;14.614;2023-06-19T00:37:15;11.53;;;10.63;;
15878;SDS011;61999;51.514;14.614;2023-06-19T00:39:44;11.93;;;11.03;;
15878;SDS011;61999;51.514;14.614;2023-06-19T00:42:12;11.83;;;10.93;;
15878;SDS011;61999;51.514;14.614;2023-06-19T00:44:40;12.47;;;11.47;;
15878;SDS011;61999;51.514;14.614;2023-06-19T00:47:08;11.93;;;10.93;;
15878;SDS011;61999;51.514;14.614;2023-06-19T00:49:36;12.43;;;11.50;;
15878;SDS011;61999;51.514;14.614;2023-06-19T00:52:04;12.17;;;11.20;;
15878;SDS011;61999;51.514;14.614;2023-06-19T00:54:33;12.27;;;11.27;;
15878;SDS011;61999;51.514;14.614;2023-06-19T00:57:03;11.83;;;10.93;;
15878;SDS011;61999;51.514;14.614;2023-06-19T00:59:32;11.97;;;10.97;;
15878;SDS011;61999;51.514;14.614;2023-06-19T01:02:00;11.50;;;10.60;;
15878;SDS011;61999;51.514;14.614;2023-06-19T01:04:29;14.50;;;13.40;;
15878;SDS011;61999;51.514;14.614;2023-06-19T01:06:57;12.80;;;11.77;;
15878;SDS011;61999;51.514;14.614;2023-06-19T01:09:38;12.23;;;11.33;;
15878;SDS011;61999;51.514;14.614;2023-06-19T01:12:15;11.63;;;10.73;;
15878;SDS011;61999;51.514;14.614;2023-06-19T01:14:50;12.40;;;11.37;;
15878;SDS011;61999;51.514;14.614;2023-06-19T01:17:25;13.67;;;12.57;;
15878;SDS011;61999;51.514;14.614;2023-06-19T01:19:54;13.00;;;11.90;;
15878;SDS011;61999;51.514;14.614;2023-06-19T01:22:25;12.37;;;11.37;;
15878;SDS011;61999;51.514;14.614;2023-06-19T01:24:54;12.00;;;11.07;;
15878;SDS011;61999;51.514;14.614;2023-06-19T01:27:22;11.87;;;10.97;;
15878;SDS011;61999;51.514;14.614;2023-06-19T01:29:52;12.37;;;11.40;;
15878;SDS011;61999;51.514;14.614;2023-06-19T01:32:22;12.57;;;11.57;;
15878;SDS011;61999;51.514;14.614;2023-06-19T01:34:59;12.47;;;11.47;;
15878;SDS011;61999;51.514;14.614;2023-06-19T01:37:30;12.10;;;11.20;;
15878;SDS011;61999;51.514;14.614;2023-06-19T01:40:00;12.20;;;11.20;;
15878;SDS011;61999;51.514;14.614;2023-06-19T01:42:35;13.90;;;12.80;;
15878;SDS011;61999;51.514;14.614;2023-06-19T01:45:06;12.97;;;11.97;;
15878;SDS011;61999;51.514;14.614;2023-06-19T01:47:36;12.60;;;11.67;;
15878;SDS011;61999;51.514;14.614;2023-06-19T01:50:04;12.57;;;11.60;;
15878;SDS011;61999;51.514;14.614;2023-06-19T01:52:37;13.23;;;12.13;;
15878;SDS011;61999;51.514;14.614;2023-06-19T01:55:07;13.00;;;12.00;;
15878;SDS011;61999;51.514;14.614;2023-06-19T01:57:37;12.17;;;11.07;;
15878;SDS011;61999;51.514;14.614;2023-06-19T02:00:05;13.63;;;12.53;;
15878;SDS011;61999;51.514;14.614;2023-06-19T02:02:36;13.87;;;12.77;;
15878;SDS011;61999;51.514;14.614;2023-06-19T02:05:04;12.73;;;11.83;;
15878;SDS011;61999;51.514;14.614;2023-06-19T02:07:33;13.53;;;12.43;;
15878;SDS011;61999;51.514;14.614;2023-06-19T02:10:02;12.83;;;11.83;;
15878;SDS011;61999;51.514;14.614;2023-06-19T02:12:31;13.37;;;12.33;;
15878;SDS011;61999;51.514;14.614;2023-06-19T02:14:59;13.83;;;12.73;;
15878;SDS011;61999;51.514;14.614;2023-06-19T02:17:27;13.47;;;12.47;;
15878;SDS011;61999;51.514;14.614;2023-06-19T02:19:55;15.03;;;13.83;;
15878;SDS011;61999;51.514;14.614;2023-06-19T02:22:23;15.27;;;13.97;;
15878;SDS011;61999;51.514;14.614;2023-06-19T02:24:51;15.57;;;14.37;;
15878;SDS011;61999;51.514;14.614;2023-06-19T02:27:21;14.33;;;13.23;;
15878;SDS011;61999;51.514;14.614;2023-06-19T02:29:50;15.37;;;14.10;;
15878;SDS011;61999;51.514;14.614;2023-06-19T02:32:19;18.90;;;17.43;;
15878;SDS011;61999;51.514;14.614;2023-06-19T02:34:49;18.23;;;16.73;;
15878;SDS011;61999;51.514;14.614;2023-06-19T02:37:18;17.30;;;15.90;;
15878;SDS011;61999;51.514;14.614;2023-06-19T02:39:47;15.10;;;13.90;;
15878;SDS011;61999;51.514;14.614;2023-06-19T02:42:16;15.93;;;14.63;;
15878;SDS011;61999;51.514;14.614;2023-06-19T02:44:49;18.50;;;17.00;;
15878;SDS011;61999;51.514;14.614;2023-06-19T02:47:21;16.50;;;15.20;;
15878;SDS011;61999;51.514;14.614;2023-06-19T02:49:50;17.93;;;16.47;;
15878;SDS011;61999;51.514;14.614;2023-06-19T02:52:20;18.77;;;17.23;;
15878;SDS011;61999;51.514;14.614;2023-06-19T02:54:49;17.83;;;16.43;;
15878;SDS011;61999;51.514;14.614;2023-06-19T02:57:18;17.80;;;16.40;;
15878;SDS011;61999;51.514;14.614;2023-06-19T02:59:49;17.87;;;16.47;;
15878;SDS011;61999;51.514;14.614;2023-06-19T03:02:17;17.13;;;15.73;;
15878;SDS011;61999;51.514;14.614;2023-06-19T03:04:48;16.93;;;15.63;;
15878;SDS011;61999;51.514;14.614;2023-06-19T03:07:18;15.27;;;14.10;;
15878;SDS011;61999;51.514;14.614;2023-06-19T03:09:47;15.63;;;14.43;;
15878;SDS011;61999;51.514;14.614;2023-06-19T03:12:18;17.30;;;15.83;;
15878;SDS011;61999;51.514;14.614;2023-06-19T03:14:51;17.73;;;16.23;;
15878;SDS011;61999;51.514;14.614;2023-06-19T03:17:20;18.70;;;17.20;;
15878;SDS011;61999;51.514;14.614;2023-06-19T03:19:52;20.20;;;18.50;;
15878;SDS011;61999;51.514;14.614;2023-06-19T03:22:22;18.27;;;16.77;;
15878;SDS011;61999;51.514;14.614;2023-06-19T03:24:52;17.77;;;16.37;;
15878;SDS011;61999;51.514;14.614;2023-06-19T03:27:21;17.73;;;16.30;;
15878;SDS011;61999;51.514;14.614;2023-06-19T03:29:53;17.43;;;16.03;;
15878;SDS011;61999;51.514;14.614;2023-06-19T03:32:21;18.27;;;16.77;;
15878;SDS011;61999;51.514;14.614;2023-06-19T03:34:49;19.80;;;18.27;;
15878;SDS011;61999;51.514;14.614;2023-06-19T03:37:18;18.80;;;17.30;;
15878;SDS011;61999;51.514;14.614;2023-06-19T03:39:46;18.93;;;17.43;;
15878;SDS011;61999;51.514;14.614;2023-06-19T03:42:14;20.07;;;18.37;;
15878;SDS011;61999;51.514;14.614;2023-06-19T03:44:41;21.63;;;19.83;;
15878;SDS011;61999;51.514;14.614;2023-06-19T03:47:11;19.57;;;17.97;;
15878;SDS011;61999;51.514;14.614;2023-06-19T03:49:39;22.23;;;20.27;;
15878;SDS011;61999;51.514;14.614;2023-06-19T03:52:07;20.67;;;18.97;;
15878;SDS011;61999;51.514;14.614;2023-06-19T03:54:35;19.90;;;18.30;;
15878;SDS011;61999;51.514;14.614;2023-06-19T03:57:03;18.33;;;16.87;;
15878;SDS011;61999;51.514;14.614;2023-06-19T03:59:32;19.83;;;18.23;;
15878;SDS011;61999;51.514;14.614;2023-06-19T04:02:00;19.53;;;17.93;;
15878;SDS011;61999;51.514;14.614;2023-06-19T04:04:29;21.90;;;20.10;;
15878;SDS011;61999;51.514;14.614;2023-06-19T04:06:57;20.50;;;18.80;;
15878;SDS011;61999;51.514;14.614;2023-06-19T04:09:25;21.40;;;19.57;;
15878;SDS011;61999;51.514;14.614;2023-06-19T04:11:55;19.13;;;17.43;;
15878;SDS011;61999;51.514;14.614;2023-06-19T04:14:24;19.33;;;17.73;;
15878;SDS011;61999;51.514;14.614;2023-06-19T04:16:53;17.67;;;16.17;;
15878;SDS011;61999;51.514;14.614;2023-06-19T04:19:22;18.07;;;16.57;;
15878;SDS011;61999;51.514;14.614;2023-06-19T04:21:53;18.73;;;17.23;;
15878;SDS011;61999;51.514;14.614;2023-06-19T04:24:22;20.07;;;18.47;;
15878;SDS011;61999;51.514;14.614;2023-06-19T04:26:50;19.27;;;17.77;;
15878;SDS011;61999;51.514;14.614;2023-06-19T04:29:19;20.43;;;18.73;;
15878;SDS011;61999;51.514;14.614;2023-06-19T04:31:47;20.17;;;18.60;;
15878;SDS011;61999;51.514;14.614;2023-06-19T04:34:17;19.57;;;17.97;;
15878;SDS011;61999;51.514;14.614;2023-06-19T04:36:47;20.03;;;18.43;;
15878;SDS011;61999;51.514;14.614;2023-06-19T04:39:16;20.47;;;18.90;;
15878;SDS011;61999;51.514;14.614;2023-06-19T04:41:45;19.00;;;17.40;;
15878;SDS011;61999;51.514;14.614;2023-06-19T04:44:12;18.67;;;17.27;;
15878;SDS011;61999;51.514;14.614;2023-06-19T04:46:40;18.93;;;17.43;;
15878;SDS011;61999;51.514;14.614;2023-06-19T04:49:10;20.50;;;18.80;;
15878;SDS011;61999;51.514;14.614;2023-06-19T04:51:39;19.20;;;17.63;;
15878;SDS011;61999;51.514;14.614;2023-06-19T04:54:08;19.33;;;17.63;;
15878;SDS011;61999;51.514;14.614;2023-06-19T04:56:37;19.33;;;17.73;;
15878;SDS011;61999;51.514;14.614;2023-06-19T04:59:05;17.97;;;16.47;;
15878;SDS011;61999;51.514;14.614;2023-06-19T05:01:33;20.97;;;19.37;;
15878;SDS011;61999;51.514;14.614;2023-06-19T05:04:01;19.27;;;17.77;;
15878;SDS011;61999;51.514;14.614;2023-06-19T05:06:30;18.43;;;17.03;;
15878;SDS011;61999;51.514;14.614;2023-06-19T05:08:58;18.57;;;17.17;;
15878;SDS011;61999;51.514;14.614;2023-06-19T05:11:28;18.97;;;17.53;;
15878;SDS011;61999;51.514;14.614;2023-06-19T05:13:57;18.47;;;17.07;;
15878;SDS011;61999;51.514;14.614;2023-06-19T05:16:26;18.53;;;17.03;;
15878;SDS011;61999;51.514;14.614;2023-06-19T05:18:55;18.63;;;17.13;;
15878;SDS011;61999;51.514;14.614;2023-06-19T05:21:23;18.90;;;17.40;;
15878;SDS011;61999;51.514;14.614;2023-06-19T05:23:52;17.37;;;16.07;;
15878;SDS011;61999;51.514;14.614;2023-06-19T05:26:21;17.57;;;16.17;;
15878;SDS011;61999;51.514;14.614;2023-06-19T05:28:50;18.20;;;16.80;;
15878;SDS011;61999;51.514;14.614;2023-06-19T05:31:20;17.57;;;16.17;;
15878;SDS011;61999;51.514;14.614;2023-06-19T05:33:49;18.87;;;17.37;;
15878;SDS011;61999;51.514;14.614;2023-06-19T05:36:18;19.63;;;18.03;;
15878;SDS011;61999;51.514;14.614;2023-06-19T05:38:47;18.50;;;17.03;;
15878;SDS011;61999;51.514;14.614;2023-06-19T05:41:15;17.47;;;16.03;;
15878;SDS011;61999;51.514;14.614;2023-06-19T05:43:44;17.27;;;15.87;;
15878;SDS011;61999;51.514;14.614;2023-06-19T05:46:13;17.80;;;16.20;;
15878;SDS011;61999;51.514;14.614;2023-06-19T05:48:43;18.33;;;16.93;;
15878;SDS011;61999;51.514;14.614;2023-06-19T05:51:12;17.40;;;16.10;;
15878;SDS011;61999;51.514;14.614;2023-06-19T05:53:41;18.67;;;17.03;;
15878;SDS011;61999;51.514;14.614;2023-06-19T05:56:10;17.87;;;16.17;;
15878;SDS011;61999;51.514;14.614;2023-06-19T05:58:38;16.43;;;15.13;;
15878;SDS011;61999;51.514;14.614;2023-06-19T06:01:06;17.07;;;15.67;;
15878;SDS011;61999;51.514;14.614;2023-06-19T06:03:36;16.50;;;15.20;;
15878;SDS011;61999;51.514;14.614;2023-06-19T06:06:07;15.10;;;13.90;;
15878;SDS011;61999;51.514;14.614;2023-06-19T06:08:36;14.67;;;13.57;;
15878;SDS011;61999;51.514;14.614;2023-06-19T06:11:05;15.63;;;14.17;;
15878;SDS011;61999;51.514;14.614;2023-06-19T06:13:33;16.77;;;15.27;;
15878;SDS011;61999;51.514;14.614;2023-06-19T06:16:03;15.40;;;14.10;;
15878;SDS011;61999;51.514;14.614;2023-06-19T06:18:32;15.33;;;13.93;;
15878;SDS011;61999;51.514;14.614;2023-06-19T06:21:01;14.43;;;13.20;;
15878;SDS011;61999;51.514;14.614;2023-06-19T06:23:32;16.33;;;15.03;;
15878;SDS011;61999;51.514;14.614;2023-06-19T06:26:01;14.67;;;13.37;;
15878;SDS011;61999;51.514;14.614;2023-06-19T06:28:31;14.63;;;13.43;;
15878;SDS011;61999;51.514;14.614;2023-06-19T06:30:59;14.57;;;13.47;;
15878;SDS011;61999;51.514;14.614;2023-06-19T06:33:28;14.30;;;13.10;;
15878;SDS011;61999;51.514;14.614;2023-06-19T06:35:57;14.87;;;13.37;;
15878;SDS011;61999;51.514;14.614;2023-06-19T06:38:27;14.70;;;13.43;;
15878;SDS011;61999;51.514;14.614;2023-06-19T06:40:57;14.00;;;12.90;;
15878;SDS011;61999;51.514;14.614;2023-06-19T06:43:26;15.67;;;14.00;;
15878;SDS011;61999;51.514;14.614;2023-06-19T06:45:55;13.47;;;12.37;;
15878;SDS011;61999;51.514;14.614;2023-06-19T06:48:24;13.37;;;12.10;;
15878;SDS011;61999;51.514;14.614;2023-06-19T06:50:52;12.00;;;10.87;;
15878;SDS011;61999;51.514;14.614;2023-06-19T06:53:28;12.53;;;11.43;;
15878;SDS011;61999;51.514;14.614;2023-06-19T06:55:59;12.40;;;11.27;;
15878;SDS011;61999;51.514;14.614;2023-06-19T06:58:29;11.27;;;10.17;;
15878;SDS011;61999;51.514;14.614;2023-06-19T07:00:57;12.40;;;11.20;;
15878;SDS011;61999;51.514;14.614;2023-06-19T07:03:25;11.70;;;10.60;;
15878;SDS011;61999;51.514;14.614;2023-06-19T07:05:56;11.13;;;10.13;;
15878;SDS011;61999;51.514;14.614;2023-06-19T07:08:24;11.77;;;10.50;;
15878;SDS011;61999;51.514;14.614;2023-06-19T07:10:54;11.80;;;10.67;;
15878;SDS011;61999;51.514;14.614;2023-06-19T07:13:24;11.77;;;10.77;;
15878;SDS011;61999;51.514;14.614;2023-06-19T07:15:53;11.60;;;10.50;;
15878;SDS011;61999;51.514;14.614;2023-06-19T07:18:21;11.13;;;10.13;;
15878;SDS011;61999;51.514;14.614;2023-06-19T07:20:50;10.23;;;9.33;;
15878;SDS011;61999;51.514;14.614;2023-06-19T07:23:18;11.63;;;10.50;;
15878;SDS011;61999;51.514;14.614;2023-06-19T07:25:47;10.60;;;9.67;;
15878;SDS011;61999;51.514;14.614;2023-06-19T07:28:16;10.20;;;9.30;;
15878;SDS011;61999;51.514;14.614;2023-06-19T07:30:46;11.03;;;10.03;;
15878;SDS011;61999;51.514;14.614;2023-06-19T07:33:16;10.73;;;9.73;;
15878;SDS011;61999;51.514;14.614;2023-06-19T07:35:44;10.80;;;9.90;;
15878;SDS011;61999;51.514;14.614;2023-06-19T07:38:13;11.13;;;10.23;;
15878;SDS011;61999;51.514;14.614;2023-06-19T07:40:43;10.00;;;9.20;;
15878;SDS011;61999;51.514;14.614;2023-06-19T07:43:12;10.60;;;9.70;;
15878;SDS011;61999;51.514;14.614;2023-06-19T07:45:45;10.27;;;9.27;;
15878;SDS011;61999;51.514;14.614;2023-06-19T07:48:16;10.83;;;10.00;;
15878;SDS011;61999;51.514;14.614;2023-06-19T07:50:46;10.23;;;9.43;;
15878;SDS011;61999;51.514;14.614;2023-06-19T07:53:20;10.90;;;9.90;;
15878;SDS011;61999;51.514;14.614;2023-06-19T07:55:49;10.57;;;9.67;;
15878;SDS011;61999;51.514;14.614;2023-06-19T07:58:18;10.53;;;9.63;;
15878;SDS011;61999;51.514;14.614;2023-06-19T08:00:50;9.83;;;8.90;;
15878;SDS011;61999;51.514;14.614;2023-06-19T08:03:19;9.57;;;8.80;;
15878;SDS011;61999;51.514;14.614;2023-06-19T08:05:51;9.63;;;8.60;;
15878;SDS011;61999;51.514;14.614;2023-06-19T08:08:20;8.30;;;7.67;;
15878;SDS011;61999;51.514;14.614;2023-06-19T08:10:48;10.93;;;9.00;;
15878;SDS011;61999;51.514;14.614;2023-06-19T08:13:17;9.70;;;8.80;;
15878;SDS011;61999;51.514;14.614;2023-06-19T08:15:46;9.53;;;8.73;;
15878;SDS011;61999;51.514;14.614;2023-06-19T08:18:16;9.87;;;9.10;;
15878;SDS011;61999;51.514;14.614;2023-06-19T08:20:46;9.87;;;9.07;;
15878;SDS011;61999;51.514;14.614;2023-06-19T08:23:16;10.00;;;9.20;;
15878;SDS011;61999;51.514;14.614;2023-06-19T08:25:44;9.03;;;8.23;;
15878;SDS011;61999;51.514;14.614;2023-06-19T08:28:18;10.20;;;9.20;;
15878;SDS011;61999;51.514;14.614;2023-06-19T08:30:46;9.53;;;8.53;;
15878;SDS011;61999;51.514;14.614;2023-06-19T08:33:16;8.90;;;8.20;;
15878;SDS011;61999;51.514;14.614;2023-06-19T08:35:44;8.93;;;8.13;;
15878;SDS011;61999;51.514;14.614;2023-06-19T08:38:14;8.80;;;8.00;;
15878;SDS011;61999;51.514;14.614;2023-06-19T08:40:44;8.77;;;8.07;;
15878;SDS011;61999;51.514;14.614;2023-06-19T08:43:13;8.00;;;7.40;;
15878;SDS011;61999;51.514;14.614;2023-06-19T08:45:43;8.27;;;7.57;;
15878;SDS011;61999;51.514;14.614;2023-06-19T08:48:31;8.23;;;7.57;;
15878;SDS011;61999;51.514;14.614;2023-06-19T08:51:06;8.00;;;7.13;;
15878;SDS011;61999;51.514;14.614;2023-06-19T08:53:35;7.50;;;6.90;;
15878;SDS011;61999;51.514;14.614;2023-06-19T08:56:12;8.23;;;7.43;;
15878;SDS011;61999;51.514;14.614;2023-06-19T08:58:45;7.20;;;6.60;;
15878;SDS011;61999;51.514;14.614;2023-06-19T09:01:16;8.07;;;7.37;;
15878;SDS011;61999;51.514;14.614;2023-06-19T09:03:47;8.03;;;7.30;;
15878;SDS011;61999;51.514;14.614;2023-06-19T09:06:18;8.03;;;7.43;;
15878;SDS011;61999;51.514;14.614;2023-06-19T09:08:57;8.53;;;6.93;;
15878;SDS011;61999;51.514;14.614;2023-06-19T09:11:27;7.27;;;6.67;;
15878;SDS011;61999;51.514;14.614;2023-06-19T09:13:57;7.83;;;7.03;;
15878;SDS011;61999;51.514;14.614;2023-06-19T09:16:36;7.47;;;6.87;;
15878;SDS011;61999;51.514;14.614;2023-06-19T09:19:07;6.83;;;6.27;;
15878;SDS011;61999;51.514;14.614;2023-06-19T09:21:37;7.33;;;6.73;;
15878;SDS011;61999;51.514;14.614;2023-06-19T09:24:05;7.20;;;6.60;;
15878;SDS011;61999;51.514;14.614;2023-06-19T09:26:35;7.47;;;6.87;;
15878;SDS011;61999;51.514;14.614;2023-06-19T09:29:09;7.43;;;6.73;;
15878;SDS011;61999;51.514;14.614;2023-06-19T09:31:40;7.57;;;6.90;;
15878;SDS011;61999;51.514;14.614;2023-06-19T09:34:10;7.30;;;6.80;;
15878;SDS011;61999;51.514;14.614;2023-06-19T09:36:38;7.30;;;6.70;;
15878;SDS011;61999;51.514;14.614;2023-06-19T09:39:07;6.90;;;6.37;;
15878;SDS011;61999;51.514;14.614;2023-06-19T09:41:38;6.67;;;6.17;;
15878;SDS011;61999;51.514;14.614;2023-06-19T09:44:08;7.00;;;6.50;;
15878;SDS011;61999;51.514;14.614;2023-06-19T09:46:41;6.70;;;6.10;;
15878;SDS011;61999;51.514;14.614;2023-06-19T09:49:16;6.13;;;5.60;;
15878;SDS011;61999;51.514;14.614;2023-06-19T09:51:47;5.50;;;5.10;;
15878;SDS011;61999;51.514;14.614;2023-06-19T09:54:17;6.30;;;5.80;;
15878;SDS011;61999;51.514;14.614;2023-06-19T09:56:47;5.50;;;5.10;;
15878;SDS011;61999;51.514;14.614;2023-06-19T09:59:17;6.43;;;5.97;;
15878;SDS011;61999;51.514;14.614;2023-06-19T10:01:46;6.27;;;5.77;;
15878;SDS011;61999;51.514;14.614;2023-06-19T10:04:17;7.13;;;5.60;;
15878;SDS011;61999;51.514;14.614;2023-06-19T10:06:45;7.00;;;6.20;;
15878;SDS011;61999;51.514;14.614;2023-06-19T10:09:15;6.33;;;5.83;;
15878;SDS011;61999;51.514;14.614;2023-06-19T10:11:45;5.77;;;5.37;;
15878;SDS011;61999;51.514;14.614;2023-06-19T10:14:17;6.53;;;6.03;;
15878;SDS011;61999;51.514;14.614;2023-06-19T10:16:46;6.40;;;5.80;;
15878;SDS011;61999;51.514;14.614;2023-06-19T10:19:14;6.20;;;5.70;;
15878;SDS011;61999;51.514;14.614;2023-06-19T10:21:46;6.80;;;6.10;;
15878;SDS011;61999;51.514;14.614;2023-06-19T10:24:16;6.83;;;6.33;;
15878;SDS011;61999;51.514;14.614;2023-06-19T10:26:55;6.70;;;6.10;;
15878;SDS011;61999;51.514;14.614;2023-06-19T10:29:25;6.20;;;5.67;;
15878;SDS011;61999;51.514;14.614;2023-06-19T10:31:54;7.03;;;6.53;;
15878;SDS011;61999;51.514;14.614;2023-06-19T10:34:33;6.63;;;6.03;;
15878;SDS011;61999;51.514;14.614;2023-06-19T10:37:02;6.87;;;6.33;;
15878;SDS011;61999;51.514;14.614;2023-06-19T10:39:31;6.23;;;5.73;;
15878;SDS011;61999;51.514;14.614;2023-06-19T10:41:59;6.57;;;6.07;;
15878;SDS011;61999;51.514;14.614;2023-06-19T10:44:28;6.30;;;5.80;;
15878;SDS011;61999;51.514;14.614;2023-06-19T10:46:56;5.87;;;5.47;;
15878;SDS011;61999;51.514;14.614;2023-06-19T10:49:24;6.60;;;5.90;;
15878;SDS011;61999;51.514;14.614;2023-06-19T10:51:53;24.43;;;9.03;;
15878;SDS011;61999;51.514;14.614;2023-06-19T10:54:27;6.10;;;5.60;;
15878;SDS011;61999;51.514;14.614;2023-06-19T10:56:57;6.57;;;6.07;;
15878;SDS011;61999;51.514;14.614;2023-06-19T10:59:29;7.60;;;7.10;;
15878;SDS011;61999;51.514;14.614;2023-06-19T11:01:57;6.93;;;6.43;;
15878;SDS011;61999;51.514;14.614;2023-06-19T11:04:25;7.67;;;7.00;;
15878;SDS011;61999;51.514;14.614;2023-06-19T11:06:55;6.63;;;6.07;;
15878;SDS011;61999;51.514;14.614;2023-06-19T11:09:24;6.40;;;5.90;;
15878;SDS011;61999;51.514;14.614;2023-06-19T11:11:53;7.80;;;7.10;;
15878;SDS011;61999;51.514;14.614;2023-06-19T11:14:21;7.17;;;6.67;;
15878;SDS011;61999;51.514;14.614;2023-06-19T11:16:48;6.77;;;6.27;;
15878;SDS011;61999;51.514;14.614;2023-06-19T11:19:18;7.50;;;6.90;;
15878;SDS011;61999;51.514;14.614;2023-06-19T11:21:49;7.30;;;6.70;;
15878;SDS011;61999;51.514;14.614;2023-06-19T11:24:22;7.80;;;7.13;;
15878;SDS011;61999;51.514;14.614;2023-06-19T11:26:51;6.87;;;6.27;;
15878;SDS011;61999;51.514;14.614;2023-06-19T11:29:21;6.77;;;6.27;;
15878;SDS011;61999;51.514;14.614;2023-06-19T11:31:51;6.90;;;6.40;;
15878;SDS011;61999;51.514;14.614;2023-06-19T11:34:32;6.87;;;6.37;;
15878;SDS011;61999;51.514;14.614;2023-06-19T11:37:02;7.63;;;6.93;;
15878;SDS011;61999;51.514;14.614;2023-06-19T11:39:40;6.87;;;6.27;;
15878;SDS011;61999;51.514;14.614;2023-06-19T11:42:10;6.70;;;6.20;;
15878;SDS011;61999;51.514;14.614;2023-06-19T11:44:52;7.43;;;6.73;;
15878;SDS011;61999;51.514;14.614;2023-06-19T11:47:21;6.30;;;5.77;;
15878;SDS011;61999;51.514;14.614;2023-06-19T11:49:49;6.47;;;5.97;;
15878;SDS011;61999;51.514;14.614;2023-06-19T11:52:18;5.87;;;5.37;;
15878;SDS011;61999;51.514;14.614;2023-06-19T11:54:47;5.50;;;5.10;;
15878;SDS011;61999;51.514;14.614;2023-06-19T11:57:15;7.03;;;6.53;;
15878;SDS011;61999;51.514;14.614;2023-06-19T11:59:44;7.40;;;6.80;;
15878;SDS011;61999;51.514;14.614;2023-06-19T12:02:12;7.13;;;6.47;;
15878;SDS011;61999;51.514;14.614;2023-06-19T12:04:41;7.37;;;6.77;;
15878;SDS011;61999;51.514;14.614;2023-06-19T12:07:09;7.33;;;6.73;;
15878;SDS011;61999;51.514;14.614;2023-06-19T12:09:38;7.63;;;7.03;;
15878;SDS011;61999;51.514;14.614;2023-06-19T12:12:08;7.63;;;6.93;;
15878;SDS011;61999;51.514;14.614;2023-06-19T12:14:37;7.37;;;6.77;;
15878;SDS011;61999;51.514;14.614;2023-06-19T12:17:06;11.13;;;7.03;;
15878;SDS011;61999;51.514;14.614;2023-06-19T12:19:34;7.20;;;6.60;;
15878;SDS011;61999;51.514;14.614;2023-06-19T12:22:03;8.20;;;7.50;;
15878;SDS011;61999;51.514;14.614;2023-06-19T12:24:31;7.57;;;7.07;;
15878;SDS011;61999;51.514;14.614;2023-06-19T12:26:59;8.10;;;7.50;;
15878;SDS011;61999;51.514;14.614;2023-06-19T12:29:28;7.87;;;7.17;;
15878;SDS011;61999;51.514;14.614;2023-06-19T12:31:59;7.97;;;7.37;;
15878;SDS011;61999;51.514;14.614;2023-06-19T12:34:29;7.27;;;6.77;;
15878;SDS011;61999;51.514;14.614;2023-06-19T12:36:57;7.13;;;6.57;;
15878;SDS011;61999;51.514;14.614;2023-06-19T12:39:25;7.93;;;7.23;;
15878;SDS011;61999;51.514;14.614;2023-06-19T12:41:53;7.77;;;7.10;;
15878;SDS011;61999;51.514;14.614;2023-06-19T12:44:21;7.37;;;6.87;;
15878;SDS011;61999;51.514;14.614;2023-06-19T12:46:52;7.67;;;7.07;;
15878;SDS011;61999;51.514;14.614;2023-06-19T12:49:20;7.83;;;7.13;;
15878;SDS011;61999;51.514;14.614;2023-06-19T12:51:48;8.30;;;7.60;;
15878;SDS011;61999;51.514;14.614;2023-06-19T12:54:18;7.27;;;6.67;;
15878;SDS011;61999;51.514;14.614;2023-06-19T12:56:46;7.90;;;7.20;;
15878;SDS011;61999;51.514;14.614;2023-06-19T12:59:15;6.93;;;6.40;;
15878;SDS011;61999;51.514;14.614;2023-06-19T13:01:43;7.40;;;6.77;;
15878;SDS011;61999;51.514;14.614;2023-06-19T13:04:13;7.33;;;6.73;;
15878;SDS011;61999;51.514;14.614;2023-06-19T13:06:41;6.47;;;5.87;;
15878;SDS011;61999;51.514;14.614;2023-06-19T13:09:09;7.13;;;6.50;;
15878;SDS011;61999;51.514;14.614;2023-06-19T13:11:37;7.20;;;6.70;;
15878;SDS011;61999;51.514;14.614;2023-06-19T13:14:05;7.50;;;7.00;;
15878;SDS011;61999;51.514;14.614;2023-06-19T13:16:33;7.57;;;6.87;;
15878;SDS011;61999;51.514;14.614;2023-06-19T13:19:10;7.13;;;6.57;;
15878;SDS011;61999;51.514;14.614;2023-06-19T13:21:39;7.93;;;7.07;;
15878;SDS011;61999;51.514;14.614;2023-06-19T13:24:08;7.60;;;7.00;;
15878;SDS011;61999;51.514;14.614;2023-06-19T13:26:36;7.70;;;7.10;;
15878;SDS011;61999;51.514;14.614;2023-06-19T13:29:04;7.57;;;6.97;;
15878;SDS011;61999;51.514;14.614;2023-06-19T13:31:33;7.80;;;7.03;;
15878;SDS011;61999;51.514;14.614;2023-06-19T13:34:01;7.37;;;6.77;;
15878;SDS011;61999;51.514;14.614;2023-06-19T13:36:29;7.00;;;6.50;;
15878;SDS011;61999;51.514;14.614;2023-06-19T13:38:59;7.93;;;7.33;;
15878;SDS011;61999;51.514;14.614;2023-06-19T13:41:27;7.50;;;6.90;;
15878;SDS011;61999;51.514;14.614;2023-06-19T13:43:57;7.87;;;7.17;;
15878;SDS011;61999;51.514;14.614;2023-06-19T13:46:25;7.87;;;7.27;;
15878;SDS011;61999;51.514;14.614;2023-06-19T13:48:53;7.13;;;6.60;;
15878;SDS011;61999;51.514;14.614;2023-06-19T13:51:21;8.10;;;7.40;;
15878;SDS011;61999;51.514;14.614;2023-06-19T13:53:51;7.60;;;7.00;;
15878;SDS011;61999;51.514;14.614;2023-06-19T13:56:21;7.73;;;7.13;;
15878;SDS011;61999;51.514;14.614;2023-06-19T13:58:50;7.73;;;7.13;;
15878;SDS011;61999;51.514;14.614;2023-06-19T14:01:18;6.83;;;6.33;;
15878;SDS011;61999;51.514;14.614;2023-06-19T14:03:46;7.67;;;7.07;;
15878;SDS011;61999;51.514;14.614;2023-06-19T14:06:14;6.93;;;6.40;;
15878;SDS011;61999;51.514;14.614;2023-06-19T14:08:42;7.23;;;6.63;;
15878;SDS011;61999;51.514;14.614;2023-06-19T14:11:12;7.47;;;6.87;;
15878;SDS011;61999;51.514;14.614;2023-06-19T14:13:41;7.87;;;7.17;;
15878;SDS011;61999;51.514;14.614;2023-06-19T14:16:09;7.37;;;6.77;;
15878;SDS011;61999;51.514;14.614;2023-06-19T14:18:37;7.97;;;7.00;;
15878;SDS011;61999;51.514;14.614;2023-06-19T14:21:05;8.07;;;7.40;;
15878;SDS011;61999;51.514;14.614;2023-06-19T14:23:33;9.03;;;7.37;;
15878;SDS011;61999;51.514;14.614;2023-06-19T14:26:06;8.10;;;7.40;;
15878;SDS011;61999;51.514;14.614;2023-06-19T14:28:34;7.53;;;6.93;;
15878;SDS011;61999;51.514;14.614;2023-06-19T14:31:05;8.17;;;7.37;;
15878;SDS011;61999;51.514;14.614;2023-06-19T14:33:33;7.77;;;7.07;;
15878;SDS011;61999;51.514;14.614;2023-06-19T14:36:03;7.87;;;7.10;;